sensor_id;sensor_type;location;lat;lon;timestamp;pressure;altitude;pressure_sealevel;temperature;humidity
59419;BME280;45224;50.904;6.038;2023-08-17T00:01:10;100082.91;;;19.83;98.91
59419;BME280;45224;50.904;6.038;2023-08-17T00:02:41;100078.41;;;19.87;98.50
59419;BME280;45224;50.904;6.038;2023-08-17T00:04:11;100080.88;;;19.92;98.08
59419;BME280;45224;50.904;6.038;2023-08-17T00:05:42;100080.44;;;19.50;100.00
59419;BME280;45224;50.904;6.038;2023-08-17T00:07:12;100086.75;;;19.45;100.00
59419;BME280;45224;50.904;6.038;2023-08-17T00:08:43;100083.56;;;19.35;100.00
59419;BME280;45224;50.904;6.038;2023-08-17T00:10:13;100089.72;;;19.34;100.00
59419;BME280;45224;50.904;6.038;2023-08-17T00:11:44;100089.72;;;19.34;100.00
59419;BME280;45224;50.904;6.038;2023-08-17T00:13:14;100090.28;;;19.44;100.00
59419;BME280;45224;50.904;6.038;2023-08-17T00:14:44;100084.91;;;19.20;100.00
59419;BME280;45224;50.904;6.038;2023-08-17T00:16:15;100084.13;;;19.16;100.00
59419;BME280;45224;50.904;6.038;2023-08-17T00:17:45;100086.75;;;19.16;100.00
59419;BME280;45224;50.904;6.038;2023-08-17T00:19:16;100095.13;;;19.28;100.00
59419;BME280;45224;50.904;6.038;2023-08-17T00:20:47;100092.28;;;19.07;100.00
59419;BME280;45224;50.904;6.038;2023-08-17T00:22:18;100091.94;;;18.90;100.00
59419;BME280;45224;50.904;6.038;2023-08-17T00:23:49;100094.03;;;18.77;100.00
59419;BME280;45224;50.904;6.038;2023-08-17T00:25:19;100103.13;;;18.95;100.00
59419;BME280;45224;50.904;6.038;2023-08-17T00:26:50;100097.19;;;18.90;100.00
59419;BME280;45224;50.904;6.038;2023-08-17T00:28:21;100096.94;;;18.66;100.00
59419;BME280;45224;50.904;6.038;2023-08-17T00:29:51;100096.19;;;18.63;100.00
59419;BME280;45224;50.904;6.038;2023-08-17T00:31:22;100103.81;;;18.70;100.00
59419;BME280;45224;50.904;6.038;2023-08-17T00:32:52;100097.09;;;18.60;100.00
59419;BME280;45224;50.904;6.038;2023-08-17T00:34:23;100100.47;;;18.65;100.00
59419;BME280;45224;50.904;6.038;2023-08-17T00:35:54;100101.91;;;18.75;100.00
59419;BME280;45224;50.904;6.038;2023-08-17T00:37:24;100098.34;;;18.78;100.00
59419;BME280;45224;50.904;6.038;2023-08-17T00:38:55;100106.06;;;18.83;100.00
59419;BME280;45224;50.904;6.038;2023-08-17T00:40:25;100104.50;;;18.77;100.00
59419;BME280;45224;50.904;6.038;2023-08-17T00:41:56;100101.78;;;18.49;100.00
59419;BME280;45224;50.904;6.038;2023-08-17T00:43:26;100094.31;;;18.35;100.00
59419;BME280;45224;50.904;6.038;2023-08-17T00:44:58;100085.31;;;18.14;100.00
59419;BME280;45224;50.904;6.038;2023-08-17T00:46:30;100100.66;;;18.26;100.00
59419;BME280;45224;50.904;6.038;2023-08-17T00:48:01;100093.75;;;18.23;100.00
59419;BME280;45224;50.904;6.038;2023-08-17T00:49:32;100093.06;;;18.17;100.00
59419;BME280;45224;50.904;6.038;2023-08-17T00:51:02;100098.66;;;18.36;100.00
59419;BME280;45224;50.904;6.038;2023-08-17T00:52:33;100093.16;;;18.45;100.00
59419;BME280;45224;50.904;6.038;2023-08-17T00:54:04;100095.50;;;18.23;100.00
59419;BME280;45224;50.904;6.038;2023-08-17T00:55:35;100089.19;;;18.32;100.00
59419;BME280;45224;50.904;6.038;2023-08-17T00:57:07;100090.50;;;18.47;100.00
59419;BME280;45224;50.904;6.038;2023-08-17T00:58:38;100090.34;;;18.53;100.00
59419;BME280;45224;50.904;6.038;2023-08-17T01:00:12;100096.63;;;18.46;100.00
59419;BME280;45224;50.904;6.038;2023-08-17T01:01:43;100090.34;;;18.53;100.00
59419;BME280;45224;50.904;6.038;2023-08-17T01:03:15;100093.09;;;18.48;100.00
59419;BME280;45224;50.904;6.038;2023-08-17T01:04:45;100096.00;;;18.37;100.00
59419;BME280;45224;50.904;6.038;2023-08-17T01:06:17;100092.22;;;18.48;100.00
59419;BME280;45224;50.904;6.038;2023-08-17T01:07:48;100097.88;;;18.65;100.00
59419;BME280;45224;50.904;6.038;2023-08-17T01:09:18;100098.59;;;18.70;100.00
59419;BME280;45224;50.904;6.038;2023-08-17T01:10:57;100095.41;;;18.59;100.00
59419;BME280;45224;50.904;6.038;2023-08-17T01:12:31;100093.44;;;18.67;100.00
59419;BME280;45224;50.904;6.038;2023-08-17T01:14:14;100083.75;;;18.39;100.00
59419;BME280;45224;50.904;6.038;2023-08-17T01:15:52;100089.56;;;18.49;100.00
59419;BME280;45224;50.904;6.038;2023-08-17T01:17:47;100083.25;;;18.56;100.00
59419;BME280;45224;50.904;6.038;2023-08-17T01:19:25;100086.88;;;18.52;100.00
59419;BME280;45224;50.904;6.038;2023-08-17T01:20:56;100084.84;;;18.62;100.00
59419;BME280;45224;50.904;6.038;2023-08-17T01:22:30;100084.66;;;18.68;100.00
59419;BME280;45224;50.904;6.038;2023-08-17T01:24:03;100089.25;;;18.60;100.00
59419;BME280;45224;50.904;6.038;2023-08-17T01:25:34;100092.06;;;18.54;100.00
59419;BME280;45224;50.904;6.038;2023-08-17T01:27:06;100090.41;;;18.50;100.00
59419;BME280;45224;50.904;6.038;2023-08-17T01:28:37;100086.56;;;18.63;100.00
59419;BME280;45224;50.904;6.038;2023-08-17T01:30:09;100083.25;;;18.56;100.00
59419;BME280;45224;50.904;6.038;2023-08-17T01:32:04;100086.91;;;18.51;100.00
59419;BME280;45224;50.904;6.038;2023-08-17T01:33:45;100085.94;;;18.53;100.00
59419;BME280;45224;50.904;6.038;2023-08-17T01:35:31;100091.72;;;18.35;100.00
59419;BME280;45224;50.904;6.038;2023-08-17T01:37:07;100082.69;;;18.14;100.00
59419;BME280;45224;50.904;6.038;2023-08-17T01:38:38;100084.59;;;18.40;100.00
59419;BME280;45224;50.904;6.038;2023-08-17T01:40:12;100079.34;;;18.40;100.00
59419;BME280;45224;50.904;6.038;2023-08-17T01:41:46;100080.03;;;18.47;100.00
59419;BME280;45224;50.904;6.038;2023-08-17T01:43:18;100076.34;;;18.54;100.00
59419;BME280;45224;50.904;6.038;2023-08-17T01:44:48;100072.66;;;18.61;100.00
59419;BME280;45224;50.904;6.038;2023-08-17T01:46:19;100078.00;;;18.56;100.00
59419;BME280;45224;50.904;6.038;2023-08-17T01:47:51;100074.72;;;18.50;100.00
59419;BME280;45224;50.904;6.038;2023-08-17T01:49:22;100074.28;;;18.65;100.00
59419;BME280;45224;50.904;6.038;2023-08-17T01:50:53;100070.75;;;18.66;100.00
59419;BME280;45224;50.904;6.038;2023-08-17T01:52:26;100068.19;;;18.65;100.00
59419;BME280;45224;50.904;6.038;2023-08-17T01:53:58;100066.81;;;18.51;100.00
59419;BME280;45224;50.904;6.038;2023-08-17T01:55:28;100071.97;;;18.54;100.00
59419;BME280;45224;50.904;6.038;2023-08-17T01:56:59;100075.16;;;18.66;100.00
59419;BME280;45224;50.904;6.038;2023-08-17T01:58:29;100072.81;;;18.55;100.00
59419;BME280;45224;50.904;6.038;2023-08-17T02:00:00;100075.31;;;18.59;100.00
59419;BME280;45224;50.904;6.038;2023-08-17T02:01:30;100068.19;;;18.33;100.00
59419;BME280;45224;50.904;6.038;2023-08-17T02:03:01;100081.38;;;18.30;100.00
59419;BME280;45224;50.904;6.038;2023-08-17T02:04:31;100069.78;;;18.39;100.00
59419;BME280;45224;50.904;6.038;2023-08-17T02:06:02;100063.53;;;18.12;100.00
59419;BME280;45224;50.904;6.038;2023-08-17T02:07:32;100072.22;;;18.14;100.00
59419;BME280;45224;50.904;6.038;2023-08-17T02:09:03;100068.53;;;18.21;100.00
59419;BME280;45224;50.904;6.038;2023-08-17T02:10:33;100060.59;;;18.24;100.00
59419;BME280;45224;50.904;6.038;2023-08-17T02:12:04;100068.16;;;18.35;100.00
59419;BME280;45224;50.904;6.038;2023-08-17T02:13:35;100059.63;;;18.28;100.00
59419;BME280;45224;50.904;6.038;2023-08-17T02:15:07;100070.25;;;18.22;100.00
59419;BME280;45224;50.904;6.038;2023-08-17T02:16:38;100074.56;;;18.23;100.00
59419;BME280;45224;50.904;6.038;2023-08-17T02:18:08;100074.75;;;18.17;100.00
59419;BME280;45224;50.904;6.038;2023-08-17T02:19:39;100069.47;;;18.18;100.00
59419;BME280;45224;50.904;6.038;2023-08-17T02:21:09;100075.72;;;18.13;100.00
59419;BME280;45224;50.904;6.038;2023-08-17T02:22:40;100083.06;;;17.98;100.00
59419;BME280;45224;50.904;6.038;2023-08-17T02:24:10;100079.88;;;17.85;100.00
59419;BME280;45224;50.904;6.038;2023-08-17T02:25:41;100082.09;;;18.02;100.00
59419;BME280;45224;50.904;6.038;2023-08-17T02:27:11;100086.47;;;18.02;100.00
59419;BME280;45224;50.904;6.038;2023-08-17T02:28:42;100082.09;;;18.02;100.00
59419;BME280;45224;50.904;6.038;2023-08-17T02:30:13;100080.22;;;18.08;100.00
59419;BME280;45224;50.904;6.038;2023-08-17T02:31:43;100079.72;;;17.93;100.00
59419;BME280;45224;50.904;6.038;2023-08-17T02:33:14;100078.00;;;17.92;100.00
59419;BME280;45224;50.904;6.038;2023-08-17T02:34:45;100081.22;;;18.02;100.00
59419;BME280;45224;50.904;6.038;2023-08-17T02:36:15;100073.91;;;18.15;100.00
59419;BME280;45224;50.904;6.038;2023-08-17T02:37:46;100072.13;;;18.17;100.00
59419;BME280;45224;50.904;6.038;2023-08-17T02:39:16;100060.63;;;18.22;100.00
59419;BME280;45224;50.904;6.038;2023-08-17T02:40:48;100063.16;;;18.25;100.00
59419;BME280;45224;50.904;6.038;2023-08-17T02:42:19;100061.88;;;18.09;100.00
59419;BME280;45224;50.904;6.038;2023-08-17T02:43:51;100062.63;;;18.13;100.00
59419;BME280;45224;50.904;6.038;2023-08-17T02:45:23;100064.25;;;18.18;100.00
59419;BME280;45224;50.904;6.038;2023-08-17T02:46:54;100053.72;;;18.20;100.00
59419;BME280;45224;50.904;6.038;2023-08-17T02:48:24;100053.47;;;18.29;100.00
59419;BME280;45224;50.904;6.038;2023-08-17T02:49:55;100051.63;;;18.33;100.00
59419;BME280;45224;50.904;6.038;2023-08-17T02:51:25;100053.41;;;18.31;100.00
59419;BME280;45224;50.904;6.038;2023-08-17T02:52:56;100059.50;;;18.31;100.00
59419;BME280;45224;50.904;6.038;2023-08-17T02:54:26;100050.78;;;17.99;100.00
59419;BME280;45224;50.904;6.038;2023-08-17T02:55:57;100059.44;;;18.01;100.00
59419;BME280;45224;50.904;6.038;2023-08-17T02:57:27;100050.47;;;18.10;100.00
59419;BME280;45224;50.904;6.038;2023-08-17T02:58:58;100059.53;;;17.98;100.00
59419;BME280;45224;50.904;6.038;2023-08-17T03:00:28;100048.09;;;18.02;100.00
59419;BME280;45224;50.904;6.038;2023-08-17T03:01:59;100048.72;;;18.12;100.00
59419;BME280;45224;50.904;6.038;2023-08-17T03:03:29;100046.22;;;18.08;100.00
59419;BME280;45224;50.904;6.038;2023-08-17T03:05:00;100051.53;;;18.04;100.00
59419;BME280;45224;50.904;6.038;2023-08-17T03:06:30;100048.75;;;18.11;100.00
59419;BME280;45224;50.904;6.038;2023-08-17T03:08:01;100051.00;;;18.23;100.00
59419;BME280;45224;50.904;6.038;2023-08-17T03:09:31;100052.94;;;18.16;100.00
59419;BME280;45224;50.904;6.038;2023-08-17T03:11:01;100058.78;;;17.93;100.00
59419;BME280;45224;50.904;6.038;2023-08-17T03:12:32;100055.03;;;18.03;100.00
59419;BME280;45224;50.904;6.038;2023-08-17T03:14:03;100046.41;;;18.00;100.00
59419;BME280;45224;50.904;6.038;2023-08-17T03:15:33;100049.88;;;18.00;100.00
59419;BME280;45224;50.904;6.038;2023-08-17T03:17:04;100048.25;;;17.96;100.00
59419;BME280;45224;50.904;6.038;2023-08-17T03:18:34;100051.44;;;18.08;100.00
59419;BME280;45224;50.904;6.038;2023-08-17T03:20:05;100042.50;;;18.15;100.00
59419;BME280;45224;50.904;6.038;2023-08-17T03:21:37;100045.78;;;17.90;100.00
59419;BME280;45224;50.904;6.038;2023-08-17T03:23:08;100044.69;;;17.99;100.00
59419;BME280;45224;50.904;6.038;2023-08-17T03:24:39;100043.56;;;18.09;100.00
59419;BME280;45224;50.904;6.038;2023-08-17T03:26:09;100041.59;;;18.17;100.00
59419;BME280;45224;50.904;6.038;2023-08-17T03:27:40;100051.97;;;18.20;100.00
59419;BME280;45224;50.904;6.038;2023-08-17T03:29:10;100043.91;;;18.28;100.00
59419;BME280;45224;50.904;6.038;2023-08-17T03:30:41;100045.78;;;18.23;100.00
59419;BME280;45224;50.904;6.038;2023-08-17T03:32:11;100038.94;;;18.19;100.00
59419;BME280;45224;50.904;6.038;2023-08-17T03:33:42;100040.91;;;18.11;100.00
59419;BME280;45224;50.904;6.038;2023-08-17T03:35:12;100045.78;;;18.23;100.00
59419;BME280;45224;50.904;6.038;2023-08-17T03:36:44;100042.47;;;18.16;100.00
59419;BME280;45224;50.904;6.038;2023-08-17T03:38:14;100045.91;;;17.84;100.00
59419;BME280;45224;50.904;6.038;2023-08-17T03:39:45;100045.72;;;17.93;100.00
59419;BME280;45224;50.904;6.038;2023-08-17T03:41:15;100047.28;;;17.99;100.00
59419;BME280;45224;50.904;6.038;2023-08-17T03:42:46;100049.34;;;17.87;100.00
59419;BME280;45224;50.904;6.038;2023-08-17T03:44:17;100050.13;;;17.91;100.00
59419;BME280;45224;50.904;6.038;2023-08-17T03:45:47;100043.03;;;17.96;100.00
59419;BME280;45224;50.904;6.038;2023-08-17T03:47:18;100042.88;;;18.02;100.00
59419;BME280;45224;50.904;6.038;2023-08-17T03:48:49;100041.34;;;17.94;100.00
59419;BME280;45224;50.904;6.038;2023-08-17T03:50:19;100033.78;;;17.81;100.00
59419;BME280;45224;50.904;6.038;2023-08-17T03:51:49;100042.75;;;17.71;100.00
59419;BME280;45224;50.904;6.038;2023-08-17T03:53:21;100043.34;;;17.82;100.00
59419;BME280;45224;50.904;6.038;2023-08-17T03:54:51;100048.50;;;17.85;100.00
59419;BME280;45224;50.904;6.038;2023-08-17T03:56:22;100050.81;;;17.98;100.00
59419;BME280;45224;50.904;6.038;2023-08-17T03:57:52;100050.78;;;17.99;100.00
59419;BME280;45224;50.904;6.038;2023-08-17T03:59:23;100054.38;;;17.95;100.00
59419;BME280;45224;50.904;6.038;2023-08-17T04:00:54;100058.72;;;17.96;100.00
59419;BME280;45224;50.904;6.038;2023-08-17T04:02:30;100054.09;;;18.06;100.00
59419;BME280;45224;50.904;6.038;2023-08-17T04:04:01;100051.28;;;18.14;100.00
59419;BME280;45224;50.904;6.038;2023-08-17T04:05:32;100055.94;;;18.02;100.00
59419;BME280;45224;50.904;6.038;2023-08-17T04:07:03;100060.25;;;18.03;100.00
59419;BME280;45224;50.904;6.038;2023-08-17T04:08:33;100063.72;;;18.05;100.00
59419;BME280;45224;50.904;6.038;2023-08-17T04:10:07;100060.34;;;18.00;100.00
59419;BME280;45224;50.904;6.038;2023-08-17T04:11:38;100073.25;;;18.06;100.00
59419;BME280;45224;50.904;6.038;2023-08-17T04:13:09;100064.56;;;18.06;100.00
59419;BME280;45224;50.904;6.038;2023-08-17T04:14:39;100068.75;;;18.12;100.00
59419;BME280;45224;50.904;6.038;2023-08-17T04:16:10;100067.88;;;18.13;100.00
59419;BME280;45224;50.904;6.038;2023-08-17T04:17:42;100066.97;;;18.14;100.00
59419;BME280;45224;50.904;6.038;2023-08-17T04:19:12;100072.94;;;18.19;100.00
59419;BME280;45224;50.904;6.038;2023-08-17T04:20:43;100071.91;;;18.24;100.00
59419;BME280;45224;50.904;6.038;2023-08-17T04:22:13;100080.09;;;18.12;100.00
59419;BME280;45224;50.904;6.038;2023-08-17T04:23:44;100079.78;;;17.90;100.00
59419;BME280;45224;50.904;6.038;2023-08-17T04:25:15;100084.72;;;18.02;100.00
59419;BME280;45224;50.904;6.038;2023-08-17T04:26:45;100084.88;;;17.96;100.00
59419;BME280;45224;50.904;6.038;2023-08-17T04:28:15;100090.03;;;17.99;100.00
59419;BME280;45224;50.904;6.038;2023-08-17T04:29:46;100081.19;;;18.03;100.00
59419;BME280;45224;50.904;6.038;2023-08-17T04:31:17;100085.69;;;17.98;100.00
59419;BME280;45224;50.904;6.038;2023-08-17T04:32:50;100081.03;;;18.10;100.00
59419;BME280;45224;50.904;6.038;2023-08-17T04:34:24;100091.41;;;18.13;100.00
59419;BME280;45224;50.904;6.038;2023-08-17T04:35:55;100089.88;;;18.05;100.00
59419;BME280;45224;50.904;6.038;2023-08-17T04:37:26;100085.41;;;18.09;100.00
59419;BME280;45224;50.904;6.038;2023-08-17T04:38:56;100092.13;;;18.19;100.00
59419;BME280;45224;50.904;6.038;2023-08-17T04:40:28;100083.66;;;18.10;100.00
59419;BME280;45224;50.904;6.038;2023-08-17T04:42:03;100086.69;;;17.94;100.00
59419;BME280;45224;50.904;6.038;2023-08-17T04:43:36;100086.50;;;18.00;100.00
59419;BME280;45224;50.904;6.038;2023-08-17T04:45:07;100094.56;;;17.93;100.00
59419;BME280;45224;50.904;6.038;2023-08-17T04:46:42;100086.34;;;18.06;100.00
59419;BME280;45224;50.904;6.038;2023-08-17T04:48:13;100088.75;;;18.14;100.00
59419;BME280;45224;50.904;6.038;2023-08-17T04:49:44;100095.50;;;17.90;100.00
59419;BME280;45224;50.904;6.038;2023-08-17T04:51:15;100096.97;;;18.00;100.00
59419;BME280;45224;50.904;6.038;2023-08-17T04:52:45;100100.22;;;18.09;100.00
59419;BME280;45224;50.904;6.038;2023-08-17T04:54:16;100095.69;;;17.81;100.00
59419;BME280;45224;50.904;6.038;2023-08-17T04:55:46;100094.56;;;17.55;100.00
59419;BME280;45224;50.904;6.038;2023-08-17T04:57:17;100091.19;;;17.50;100.00
59419;BME280;45224;50.904;6.038;2023-08-17T04:58:49;100091.81;;;17.61;100.00
59419;BME280;45224;50.904;6.038;2023-08-17T05:00:21;100085.28;;;17.42;100.00
59419;BME280;45224;50.904;6.038;2023-08-17T05:01:58;100088.31;;;17.62;100.00
59419;BME280;45224;50.904;6.038;2023-08-17T05:03:29;100085.84;;;17.56;100.00
59419;BME280;45224;50.904;6.038;2023-08-17T05:05:03;100088.50;;;17.53;100.00
59419;BME280;45224;50.904;6.038;2023-08-17T05:06:33;100092.63;;;17.63;100.00
59419;BME280;45224;50.904;6.038;2023-08-17T05:08:05;100088.44;;;17.56;100.00
59419;BME280;45224;50.904;6.038;2023-08-17T05:09:35;100093.47;;;17.65;100.00
59419;BME280;45224;50.904;6.038;2023-08-17T05:11:06;100080.31;;;17.68;100.00
59419;BME280;45224;50.904;6.038;2023-08-17T05:12:36;100084.03;;;17.58;100.00
59419;BME280;45224;50.904;6.038;2023-08-17T05:14:07;100083.34;;;17.50;100.00
59419;BME280;45224;50.904;6.038;2023-08-17T05:15:37;100083.31;;;17.51;100.00
59419;BME280;45224;50.904;6.038;2023-08-17T05:17:10;100084.28;;;17.49;100.00
59419;BME280;45224;50.904;6.038;2023-08-17T05:18:42;100083.69;;;17.36;100.00
59419;BME280;45224;50.904;6.038;2023-08-17T05:20:15;100086.75;;;17.53;100.00
59419;BME280;45224;50.904;6.038;2023-08-17T05:21:45;100085.84;;;17.56;100.00
59419;BME280;45224;50.904;6.038;2023-08-17T05:23:16;100087.56;;;17.57;100.00
59419;BME280;45224;50.904;6.038;2023-08-17T05:24:47;100092.94;;;17.51;100.00
59419;BME280;45224;50.904;6.038;2023-08-17T05:26:18;100088.63;;;17.48;100.00
59419;BME280;45224;50.904;6.038;2023-08-17T05:27:48;100084.16;;;17.52;100.00
59419;BME280;45224;50.904;6.038;2023-08-17T05:29:20;100085.41;;;17.37;100.00
59419;BME280;45224;50.904;6.038;2023-08-17T05:30:51;100082.75;;;17.39;100.00
59419;BME280;45224;50.904;6.038;2023-08-17T05:32:21;100093.03;;;17.46;100.00
59419;BME280;45224;50.904;6.038;2023-08-17T05:33:56;100091.41;;;17.41;100.00
59419;BME280;45224;50.904;6.038;2023-08-17T05:35:28;100095.06;;;17.33;100.00
59419;BME280;45224;50.904;6.038;2023-08-17T05:36:59;100099.19;;;17.44;100.00
59419;BME280;45224;50.904;6.038;2023-08-17T05:38:30;100097.50;;;17.41;100.00
59419;BME280;45224;50.904;6.038;2023-08-17T05:40:00;100095.75;;;17.42;100.00
59419;BME280;45224;50.904;6.038;2023-08-17T05:41:31;100094.94;;;17.40;100.00
59419;BME280;45224;50.904;6.038;2023-08-17T05:43:02;100091.50;;;17.38;100.00
59419;BME280;45224;50.904;6.038;2023-08-17T05:44:33;100093.91;;;17.45;100.00
59419;BME280;45224;50.904;6.038;2023-08-17T05:46:03;100095.41;;;17.57;100.00
59419;BME280;45224;50.904;6.038;2023-08-17T05:47:34;100096.44;;;17.50;100.00
59419;BME280;45224;50.904;6.038;2023-08-17T05:49:04;100090.09;;;17.60;100.00
59419;BME280;45224;50.904;6.038;2023-08-17T05:50:35;100094.53;;;17.57;100.00
59419;BME280;45224;50.904;6.038;2023-08-17T05:52:05;100101.00;;;17.40;100.00
59419;BME280;45224;50.904;6.038;2023-08-17T05:53:36;100095.00;;;17.37;100.00
59419;BME280;45224;50.904;6.038;2023-08-17T05:55:06;100096.72;;;17.38;100.00
59419;BME280;45224;50.904;6.038;2023-08-17T05:56:37;100099.88;;;17.13;100.00
59419;BME280;45224;50.904;6.038;2023-08-17T05:58:08;100094.34;;;17.27;100.00
59419;BME280;45224;50.904;6.038;2023-08-17T05:59:38;100100.56;;;17.21;100.00
59419;BME280;45224;50.904;6.038;2023-08-17T06:01:10;100101.41;;;17.23;100.00
59419;BME280;45224;50.904;6.038;2023-08-17T06:02:40;100101.31;;;17.28;100.00
59419;BME280;45224;50.904;6.038;2023-08-17T06:04:10;100105.84;;;17.18;100.00
59419;BME280;45224;50.904;6.038;2023-08-17T06:05:41;100112.94;;;17.13;100.00
59419;BME280;45224;50.904;6.038;2023-08-17T06:07:11;100120.91;;;17.07;100.00
59419;BME280;45224;50.904;6.038;2023-08-17T06:08:42;100112.28;;;17.03;100.00
59419;BME280;45224;50.904;6.038;2023-08-17T06:10:12;100113.00;;;17.10;100.00
59419;BME280;45224;50.904;6.038;2023-08-17T06:11:43;100116.41;;;17.15;100.00
59419;BME280;45224;50.904;6.038;2023-08-17T06:13:13;100109.78;;;16.97;100.00
59419;BME280;45224;50.904;6.038;2023-08-17T06:14:44;100111.75;;;16.87;100.00
59419;BME280;45224;50.904;6.038;2023-08-17T06:16:14;100108.94;;;16.96;100.00
59419;BME280;45224;50.904;6.038;2023-08-17T06:17:46;100113.47;;;16.88;100.00
59419;BME280;45224;50.904;6.038;2023-08-17T06:19:16;100116.91;;;16.90;100.00
59419;BME280;45224;50.904;6.038;2023-08-17T06:20:47;100112.56;;;16.91;100.00
59419;BME280;45224;50.904;6.038;2023-08-17T06:22:18;100105.63;;;16.88;100.00
59419;BME280;45224;50.904;6.038;2023-08-17T06:23:48;100105.53;;;16.93;100.00
59419;BME280;45224;50.904;6.038;2023-08-17T06:25:19;100110.06;;;16.83;100.00
59419;BME280;45224;50.904;6.038;2023-08-17T06:26:49;100104.69;;;16.92;100.00
59419;BME280;45224;50.904;6.038;2023-08-17T06:28:20;100102.97;;;16.91;100.00
59419;BME280;45224;50.904;6.038;2023-08-17T06:29:50;100111.38;;;16.62;100.00
59419;BME280;45224;50.904;6.038;2023-08-17T06:31:21;100108.25;;;16.88;100.00
59419;BME280;45224;50.904;6.038;2023-08-17T06:32:53;100102.31;;;16.78;100.00
59419;BME280;45224;50.904;6.038;2023-08-17T06:34:23;100101.28;;;16.87;100.00
59419;BME280;45224;50.904;6.038;2023-08-17T06:35:54;100095.25;;;16.85;100.00
59419;BME280;45224;50.904;6.038;2023-08-17T06:37:24;100101.91;;;17.00;100.00
59419;BME280;45224;50.904;6.038;2023-08-17T06:38:55;100099.22;;;17.03;100.00
59419;BME280;45224;50.904;6.038;2023-08-17T06:40:25;100107.75;;;17.11;100.00
59419;BME280;45224;50.904;6.038;2023-08-17T06:41:55;100108.72;;;17.07;100.00
59419;BME280;45224;50.904;6.038;2023-08-17T06:43:26;100107.06;;;17.03;100.00
59419;BME280;45224;50.904;6.038;2023-08-17T06:44:56;100104.41;;;17.05;100.00
59419;BME280;45224;50.904;6.038;2023-08-17T06:46:27;100104.03;;;17.23;100.00
59419;BME280;45224;50.904;6.038;2023-08-17T06:47:58;100107.19;;;17.38;100.00
59419;BME280;45224;50.904;6.038;2023-08-17T06:49:30;100109.56;;;17.47;100.00
59419;BME280;45224;50.904;6.038;2023-08-17T06:51:00;100108.63;;;17.51;100.00
59419;BME280;45224;50.904;6.038;2023-08-17T06:52:32;100116.28;;;17.59;100.00
59419;BME280;45224;50.904;6.038;2023-08-17T06:54:07;100114.50;;;17.59;100.00
59419;BME280;45224;50.904;6.038;2023-08-17T06:55:39;100115.53;;;17.52;100.00
59419;BME280;45224;50.904;6.038;2023-08-17T06:57:10;100121.53;;;17.57;100.00
59419;BME280;45224;50.904;6.038;2023-08-17T06:58:40;100123.97;;;17.63;100.00
59419;BME280;45224;50.904;6.038;2023-08-17T07:00:11;100121.34;;;17.65;100.00
59419;BME280;45224;50.904;6.038;2023-08-17T07:01:42;100121.31;;;17.66;100.00
59419;BME280;45224;50.904;6.038;2023-08-17T07:03:12;100120.88;;;17.49;100.00
59419;BME280;45224;50.904;6.038;2023-08-17T07:04:43;100126.44;;;17.71;100.00
59419;BME280;45224;50.904;6.038;2023-08-17T07:06:13;100115.19;;;17.67;100.00
59419;BME280;45224;50.904;6.038;2023-08-17T07:07:44;100126.34;;;17.74;100.00
59419;BME280;45224;50.904;6.038;2023-08-17T07:09:14;100130.72;;;17.74;100.00
59419;BME280;45224;50.904;6.038;2023-08-17T07:10:45;100130.66;;;17.77;100.00
59419;BME280;45224;50.904;6.038;2023-08-17T07:12:16;100132.16;;;17.87;100.00
59419;BME280;45224;50.904;6.038;2023-08-17T07:13:47;100129.41;;;17.93;100.00
59419;BME280;45224;50.904;6.038;2023-08-17T07:15:18;100134.63;;;17.95;100.00
59419;BME280;45224;50.904;6.038;2023-08-17T07:16:49;100136.78;;;17.76;100.00
59419;BME280;45224;50.904;6.038;2023-08-17T07:18:19;100135.59;;;17.89;100.00
59419;BME280;45224;50.904;6.038;2023-08-17T07:19:50;100134.75;;;17.87;100.00
59419;BME280;45224;50.904;6.038;2023-08-17T07:21:20;100137.13;;;17.99;100.00
59419;BME280;45224;50.904;6.038;2023-08-17T07:22:50;100134.72;;;17.90;100.00
59419;BME280;45224;50.904;6.038;2023-08-17T07:24:21;100126.72;;;17.96;100.00
59419;BME280;45224;50.904;6.038;2023-08-17T07:25:51;100127.38;;;18.04;100.00
59419;BME280;45224;50.904;6.038;2023-08-17T07:27:22;100129.94;;;18.08;100.00
59419;BME280;45224;50.904;6.038;2023-08-17T07:28:52;100121.16;;;18.09;100.00
59419;BME280;45224;50.904;6.038;2023-08-17T07:30:23;100131.63;;;18.09;100.00
59419;BME280;45224;50.904;6.038;2023-08-17T07:31:53;100134.00;;;18.18;100.00
59419;BME280;45224;50.904;6.038;2023-08-17T07:33:24;100133.22;;;18.16;100.00
59419;BME280;45224;50.904;6.038;2023-08-17T07:34:55;100138.38;;;18.19;100.00
59419;BME280;45224;50.904;6.038;2023-08-17T07:36:25;100138.44;;;18.16;100.00
59419;BME280;45224;50.904;6.038;2023-08-17T07:37:56;100142.59;;;17.87;100.00
59419;BME280;45224;50.904;6.038;2023-08-17T07:39:26;100148.06;;;17.78;100.00
59419;BME280;45224;50.904;6.038;2023-08-17T07:40:57;100151.22;;;17.92;100.00
59419;BME280;45224;50.904;6.038;2023-08-17T07:42:27;100152.56;;;18.09;100.00
59419;BME280;45224;50.904;6.038;2023-08-17T07:43:58;100151.84;;;18.02;100.00
59419;BME280;45224;50.904;6.038;2023-08-17T07:45:28;100145.63;;;18.08;100.00
59419;BME280;45224;50.904;6.038;2023-08-17T07:46:59;100145.69;;;18.04;100.00
59419;BME280;45224;50.904;6.038;2023-08-17T07:48:29;100142.69;;;17.84;100.00
59419;BME280;45224;50.904;6.038;2023-08-17T07:50:04;100146.22;;;17.83;100.00
59419;BME280;45224;50.904;6.038;2023-08-17T07:51:35;100142.59;;;17.87;100.00